sensor_id;sensor_type;location;lat;lon;timestamp;pressure;altitude;pressure_sealevel;temperature;humidity
38285;BME280;24088;42.664;23.354;2022-08-21T00:00:35;94499.94;;;23.66;100.00
38285;BME280;24088;42.664;23.354;2022-08-21T00:01:38;94494.16;;;23.47;100.00
38285;BME280;24088;42.664;23.354;2022-08-21T00:02:44;94498.25;;;23.41;100.00
38285;BME280;24088;42.664;23.354;2022-08-21T00:03:45;94496.69;;;23.45;100.00
38285;BME280;24088;42.664;23.354;2022-08-21T00:04:46;94499.72;;;23.53;100.00
38285;BME280;24088;42.664;23.354;2022-08-21T00:05:48;94493.34;;;23.53;100.00
38285;BME280;24088;42.664;23.354;2022-08-21T00:06:51;94498.47;;;23.48;100.00
38285;BME280;24088;42.664;23.354;2022-08-21T00:07:52;94495.41;;;23.46;100.00
38285;BME280;24088;42.664;23.354;2022-08-21T00:08:54;94487.00;;;23.46;100.00
38285;BME280;24088;42.664;23.354;2022-08-21T00:09:55;94483.66;;;23.54;100.00
38285;BME280;24088;42.664;23.354;2022-08-21T00:10:56;94481.72;;;23.37;100.00
38285;BME280;24088;42.664;23.354;2022-08-21T00:11:57;94487.09;;;23.30;100.00
38285;BME280;24088;42.664;23.354;2022-08-21T00:12:59;94488.59;;;23.36;100.00
38285;BME280;24088;42.664;23.354;2022-08-21T00:14:00;94489.03;;;23.52;100.00
38285;BME280;24088;42.664;23.354;2022-08-21T00:15:02;94480.38;;;23.49;100.00
38285;BME280;24088;42.664;23.354;2022-08-21T00:16:03;94481.88;;;23.56;100.00
38285;BME280;24088;42.664;23.354;2022-08-21T00:17:04;94476.06;;;23.48;100.00
38285;BME280;24088;42.664;23.354;2022-08-21T00:18:06;94479.09;;;23.56;100.00
38285;BME280;24088;42.664;23.354;2022-08-21T00:19:08;94481.56;;;23.71;100.00
38285;BME280;24088;42.664;23.354;2022-08-21T00:20:10;94481.06;;;23.67;100.00
38285;BME280;24088;42.664;23.354;2022-08-21T00:21:12;94475.78;;;23.52;100.00
38285;BME280;24088;42.664;23.354;2022-08-21T00:22:14;94481.69;;;23.43;100.00
38285;BME280;24088;42.664;23.354;2022-08-21T00:23:15;94475.88;;;23.35;100.00
38285;BME280;24088;42.664;23.354;2022-08-21T00:24:16;94481.03;;;23.20;100.00
38285;BME280;24088;42.664;23.354;2022-08-21T00:25:18;94478.47;;;23.16;100.00
38285;BME280;24088;42.664;23.354;2022-08-21T00:26:18;94482.03;;;23.22;100.00
38285;BME280;24088;42.664;23.354;2022-08-21T00:27:20;94481.56;;;23.13;100.00
38285;BME280;24088;42.664;23.354;2022-08-21T00:28:20;94475.19;;;23.18;100.00
38285;BME280;24088;42.664;23.354;2022-08-21T00:29:22;94474.09;;;23.32;100.00
38285;BME280;24088;42.664;23.354;2022-08-21T00:30:23;94467.75;;;23.32;100.00
38285;BME280;24088;42.664;23.354;2022-08-21T00:31:25;94467.75;;;23.32;100.00
38285;BME280;24088;42.664;23.354;2022-08-21T00:32:26;94468.47;;;23.38;100.00
38285;BME280;24088;42.664;23.354;2022-08-21T00:33:27;94472.81;;;23.39;100.00
38285;BME280;24088;42.664;23.354;2022-08-21T00:34:28;94464.38;;;23.44;100.00
38285;BME280;24088;42.664;23.354;2022-08-21T00:35:30;94465.38;;;23.41;100.00
38285;BME280;24088;42.664;23.354;2022-08-21T00:36:31;94462.84;;;23.38;100.00
38285;BME280;24088;42.664;23.354;2022-08-21T00:37:34;94469.03;;;23.31;100.00
38285;BME280;24088;42.664;23.354;2022-08-21T00:38:34;94464.31;;;23.50;100.00
38285;BME280;24088;42.664;23.354;2022-08-21T00:39:36;94463.25;;;23.59;100.00
38285;BME280;24088;42.664;23.354;2022-08-21T00:40:37;94463.34;;;23.42;100.00
38285;BME280;24088;42.664;23.354;2022-08-21T00:41:39;94468.75;;;23.29;100.00
38285;BME280;24088;42.664;23.354;2022-08-21T00:42:40;94470.53;;;23.32;100.00
38285;BME280;24088;42.664;23.354;2022-08-21T00:43:42;94467.97;;;23.34;100.00
38285;BME280;24088;42.664;23.354;2022-08-21T00:44:43;94474.16;;;23.15;100.00
38285;BME280;24088;42.664;23.354;2022-08-21T00:45:45;94474.94;;;23.16;100.00
38285;BME280;24088;42.664;23.354;2022-08-21T00:46:45;94480.03;;;23.17;100.00
38285;BME280;24088;42.664;23.354;2022-08-21T00:47:47;94479.50;;;23.19;100.00
38285;BME280;24088;42.664;23.354;2022-08-21T00:48:47;94478.75;;;23.18;100.00
38285;BME280;24088;42.664;23.354;2022-08-21T00:49:49;94483.28;;;23.27;100.00
38285;BME280;24088;42.664;23.354;2022-08-21T00:52:08;94480.25;;;23.19;100.00
38285;BME280;24088;42.664;23.354;2022-08-21T00:53:11;94485.88;;;23.19;100.00
38285;BME280;24088;42.664;23.354;2022-08-21T00:54:13;94483.81;;;23.20;100.00
38285;BME280;24088;42.664;23.354;2022-08-21T00:55:14;94487.63;;;23.22;100.00
38285;BME280;24088;42.664;23.354;2022-08-21T00:56:16;94480.25;;;23.19;100.00
38285;BME280;24088;42.664;23.354;2022-08-21T00:57:19;94482.03;;;23.22;100.00
38285;BME280;24088;42.664;23.354;2022-08-21T00:58:21;94469.31;;;23.21;100.00
38285;BME280;24088;42.664;23.354;2022-08-21T00:59:22;94473.94;;;23.13;100.00
38285;BME280;24088;42.664;23.354;2022-08-21T01:00:26;94465.72;;;23.27;100.00
38285;BME280;24088;42.664;23.354;2022-08-21T01:01:28;94462.44;;;23.22;100.00
38285;BME280;24088;42.664;23.354;2022-08-21T01:02:29;94460.13;;;23.27;100.00
38285;BME280;24088;42.664;23.354;2022-08-21T01:03:30;94465.19;;;23.28;100.00
38285;BME280;24088;42.664;23.354;2022-08-21T01:04:31;94456.09;;;23.22;100.00
38285;BME280;24088;42.664;23.354;2022-08-21T01:05:32;94455.78;;;23.31;100.00
38285;BME280;24088;42.664;23.354;2022-08-21T01:06:33;94461.41;;;23.26;100.00
38285;BME280;24088;42.664;23.354;2022-08-21T01:07:35;94458.13;;;23.21;100.00
38285;BME280;24088;42.664;23.354;2022-08-21T01:08:38;94458.81;;;23.39;100.00
38285;BME280;24088;42.664;23.354;2022-08-21T01:09:40;94459.06;;;23.30;100.00
38285;BME280;24088;42.664;23.354;2022-08-21T01:10:40;94455.09;;;23.14;100.00
38285;BME280;24088;42.664;23.354;2022-08-21T01:11:42;94460.63;;;23.31;100.00
38285;BME280;24088;42.664;23.354;2022-08-21T01:12:43;94457.81;;;23.31;100.00
38285;BME280;24088;42.664;23.354;2022-08-21T01:13:44;94451.66;;;23.38;100.00
38285;BME280;24088;42.664;23.354;2022-08-21T01:14:46;94453.50;;;23.24;100.00
38285;BME280;24088;42.664;23.354;2022-08-21T01:15:48;94451.97;;;23.29;100.00
38285;BME280;24088;42.664;23.354;2022-08-21T01:16:49;94455.28;;;23.27;100.00
38285;BME280;24088;42.664;23.354;2022-08-21T01:17:52;94452.44;;;23.33;100.00
38285;BME280;24088;42.664;23.354;2022-08-21T01:18:53;94452.44;;;23.33;100.00
38285;BME280;24088;42.664;23.354;2022-08-21T01:19:57;94451.47;;;23.24;100.00
38285;BME280;24088;42.664;23.354;2022-08-21T01:21:03;94451.78;;;23.15;100.00
38285;BME280;24088;42.664;23.354;2022-08-21T01:22:05;94449.19;;;23.23;100.00
38285;BME280;24088;42.664;23.354;2022-08-21T01:23:06;94452.56;;;23.10;100.00
38285;BME280;24088;42.664;23.354;2022-08-21T01:24:07;94450.97;;;23.20;100.00
38285;BME280;24088;42.664;23.354;2022-08-21T01:25:09;94443.09;;;23.19;100.00
38285;BME280;24088;42.664;23.354;2022-08-21T01:26:11;94445.13;;;23.24;100.00
38285;BME280;24088;42.664;23.354;2022-08-21T01:27:12;94446.16;;;23.15;100.00
38285;BME280;24088;42.664;23.354;2022-08-21T01:28:13;94444.41;;;23.18;100.00
38285;BME280;24088;42.664;23.354;2022-08-21T01:29:15;94450.97;;;23.20;100.00
38285;BME280;24088;42.664;23.354;2022-08-21T01:30:18;94442.31;;;23.24;100.00
38285;BME280;24088;42.664;23.354;2022-08-21T01:31:20;94446.44;;;23.12;100.00
38285;BME280;24088;42.664;23.354;2022-08-21T01:32:23;94452.59;;;22.99;100.00
38285;BME280;24088;42.664;23.354;2022-08-21T01:33:24;94440.34;;;23.13;100.00
38285;BME280;24088;42.664;23.354;2022-08-21T01:34:26;94435.94;;;23.23;100.00
38285;BME280;24088;42.664;23.354;2022-08-21T01:35:26;94435.72;;;23.21;100.00
38285;BME280;24088;42.664;23.354;2022-08-21T01:36:29;94441.28;;;23.27;100.00
38285;BME280;24088;42.664;23.354;2022-08-21T01:37:29;94443.34;;;23.27;100.00
38285;BME280;24088;42.664;23.354;2022-08-21T01:38:31;94444.84;;;23.28;100.00
38285;BME280;24088;42.664;23.354;2022-08-21T01:39:32;94444.34;;;23.23;100.00
38285;BME280;24088;42.664;23.354;2022-08-21T01:40:34;94451.25;;;23.22;100.00
38285;BME280;24088;42.664;23.354;2022-08-21T01:41:36;94447.41;;;23.26;100.00
38285;BME280;24088;42.664;23.354;2022-08-21T01:42:36;94454.03;;;23.22;100.00
38285;BME280;24088;42.664;23.354;2022-08-21T01:43:38;94454.47;;;23.38;100.00
38285;BME280;24088;42.664;23.354;2022-08-21T01:44:39;94455.69;;;23.42;100.00
38285;BME280;24088;42.664;23.354;2022-08-21T01:45:40;94451.91;;;23.40;100.00
38285;BME280;24088;42.664;23.354;2022-08-21T01:46:41;94452.41;;;23.44;100.00
38285;BME280;24088;42.664;23.354;2022-08-21T01:47:42;94449.69;;;23.27;100.00
38285;BME280;24088;42.664;23.354;2022-08-21T01:48:43;94444.88;;;23.22;100.00
38285;BME280;24088;42.664;23.354;2022-08-21T01:49:44;94446.63;;;23.25;100.00
38285;BME280;24088;42.664;23.354;2022-08-21T01:50:45;94449.19;;;23.23;100.00
38285;BME280;24088;42.664;23.354;2022-08-21T01:51:47;94444.34;;;23.23;100.00
38285;BME280;24088;42.664;23.354;2022-08-21T01:52:48;94451.47;;;23.24;100.00
38285;BME280;24088;42.664;23.354;2022-08-21T01:53:50;94445.91;;;23.19;100.00
38285;BME280;24088;42.664;23.354;2022-08-21T01:54:50;94445.59;;;23.28;100.00
38285;BME280;24088;42.664;23.354;2022-08-21T01:55:52;94454.19;;;23.41;100.00
38285;BME280;24088;42.664;23.354;2022-08-21T01:56:53;94453.22;;;23.33;100.00
38285;BME280;24088;42.664;23.354;2022-08-21T01:57:55;94451.97;;;23.29;100.00
38285;BME280;24088;42.664;23.354;2022-08-21T01:58:57;94454.75;;;23.34;100.00
38285;BME280;24088;42.664;23.354;2022-08-21T01:59:58;94461.84;;;23.41;100.00
38285;BME280;24088;42.664;23.354;2022-08-21T02:00:59;94455.53;;;23.29;100.00
38285;BME280;24088;42.664;23.354;2022-08-21T02:02:01;94459.59;;;23.28;100.00
38285;BME280;24088;42.664;23.354;2022-08-21T02:03:02;94453.00;;;23.26;100.00
38285;BME280;24088;42.664;23.354;2022-08-21T02:04:03;94453.44;;;23.41;100.00
38285;BME280;24088;42.664;23.354;2022-08-21T02:05:04;94453.28;;;23.22;100.00
38285;BME280;24088;42.664;23.354;2022-08-21T02:06:06;94453.75;;;23.32;100.00
38285;BME280;24088;42.664;23.354;2022-08-21T02:07:09;94462.41;;;23.28;100.00
38285;BME280;24088;42.664;23.354;2022-08-21T02:08:10;94455.31;;;23.21;100.00
38285;BME280;24088;42.664;23.354;2022-08-21T02:09:11;94469.53;;;23.29;100.00
38285;BME280;24088;42.664;23.354;2022-08-21T02:10:15;94464.22;;;23.20;100.00
38285;BME280;24088;42.664;23.354;2022-08-21T02:11:15;94468.41;;;22.80;100.00
38285;BME280;24088;42.664;23.354;2022-08-21T02:12:17;94467.63;;;22.85;100.00
38285;BME280;24088;42.664;23.354;2022-08-21T02:13:17;94466.63;;;22.82;100.00
38285;BME280;24088;42.664;23.354;2022-08-21T02:14:19;94462.53;;;22.89;100.00
38285;BME280;24088;42.664;23.354;2022-08-21T02:15:20;94464.53;;;23.11;100.00
38285;BME280;24088;42.664;23.354;2022-08-21T02:16:21;94464.47;;;23.22;100.00
38285;BME280;24088;42.664;23.354;2022-08-21T02:17:22;94469.03;;;23.25;100.00
38285;BME280;24088;42.664;23.354;2022-08-21T02:18:23;94474.13;;;23.27;100.00
38285;BME280;24088;42.664;23.354;2022-08-21T02:19:24;94467.03;;;23.26;100.00
38285;BME280;24088;42.664;23.354;2022-08-21T02:20:26;94468.81;;;23.23;100.00
38285;BME280;24088;42.664;23.354;2022-08-21T02:21:27;94465.72;;;23.27;100.00
38285;BME280;24088;42.664;23.354;2022-08-21T02:22:30;94472.13;;;23.21;100.00
38285;BME280;24088;42.664;23.354;2022-08-21T02:23:30;94470.84;;;23.22;100.00
38285;BME280;24088;42.664;23.354;2022-08-21T02:24:32;94471.34;;;23.27;100.00
38285;BME280;24088;42.664;23.354;2022-08-21T02:25:33;94466.22;;;23.25;100.00
38285;BME280;24088;42.664;23.354;2022-08-21T02:26:35;94471.06;;;23.24;100.00
38285;BME280;24088;42.664;23.354;2022-08-21T02:27:37;94468.75;;;23.29;100.00
38285;BME280;24088;42.664;23.354;2022-08-21T02:28:39;94463.91;;;23.35;100.00
38285;BME280;24088;42.664;23.354;2022-08-21T02:29:39;94480.53;;;23.21;100.00
38285;BME280;24088;42.664;23.354;2022-08-21T02:30:42;94483.81;;;23.20;100.00
38285;BME280;24088;42.664;23.354;2022-08-21T02:31:43;94482.84;;;23.12;100.00
38285;BME280;24088;42.664;23.354;2022-08-21T02:32:44;94480.31;;;23.03;100.00
38285;BME280;24088;42.664;23.354;2022-08-21T02:33:45;94487.69;;;23.06;100.00
38285;BME280;24088;42.664;23.354;2022-08-21T02:34:46;94482.38;;;23.02;100.00
38285;BME280;24088;42.664;23.354;2022-08-21T02:35:47;94480.09;;;23.01;100.00
38285;BME280;24088;42.664;23.354;2022-08-21T02:36:49;94482.09;;;23.06;100.00
38285;BME280;24088;42.664;23.354;2022-08-21T02:37:51;94479.53;;;23.13;100.00
38285;BME280;24088;42.664;23.354;2022-08-21T02:38:53;94482.03;;;23.22;100.00
38285;BME280;24088;42.664;23.354;2022-08-21T02:39:54;94477.53;;;23.03;100.00
38285;BME280;24088;42.664;23.354;2022-08-21T02:40:56;94477.53;;;23.03;100.00
38285;BME280;24088;42.664;23.354;2022-08-21T02:41:57;94477.28;;;22.89;100.00
38285;BME280;24088;42.664;23.354;2022-08-21T02:42:59;94474.22;;;23.04;100.00
38285;BME280;24088;42.664;23.354;2022-08-21T02:43:59;94478.97;;;23.20;100.00
38285;BME280;24088;42.664;23.354;2022-08-21T02:45:01;94472.84;;;23.28;100.00
38285;BME280;24088;42.664;23.354;2022-08-21T02:46:02;94473.38;;;23.20;100.00
38285;BME280;24088;42.664;23.354;2022-08-21T02:47:04;94474.69;;;23.14;100.00
38285;BME280;24088;42.664;23.354;2022-08-21T02:48:06;94474.69;;;23.08;100.00
38285;BME280;24088;42.664;23.354;2022-08-21T02:49:07;94472.69;;;23.09;100.00
38285;BME280;24088;42.664;23.354;2022-08-21T02:50:08;94474.75;;;22.97;100.00
38285;BME280;24088;42.664;23.354;2022-08-21T02:51:11;94469.50;;;22.26;100.00
38285;BME280;24088;42.664;23.354;2022-08-21T02:52:11;94479.94;;;22.25;100.00
38285;BME280;24088;42.664;23.354;2022-08-21T02:53:15;94472.31;;;22.32;100.00
38285;BME280;24088;42.664;23.354;2022-08-21T02:54:16;94479.44;;;22.27;100.00
38285;BME280;24088;42.664;23.354;2022-08-21T02:55:17;94484.00;;;22.30;100.00
38285;BME280;24088;42.664;23.354;2022-08-21T02:56:19;94482.22;;;22.21;100.00
38285;BME280;24088;42.664;23.354;2022-08-21T02:57:21;94476.84;;;22.52;100.00
38285;BME280;24088;42.664;23.354;2022-08-21T02:58:22;94483.66;;;22.84;100.00
38285;BME280;24088;42.664;23.354;2022-08-21T02:59:24;94481.13;;;22.97;100.00
38285;BME280;24088;42.664;23.354;2022-08-21T03:00:26;94482.09;;;23.06;100.00
38285;BME280;24088;42.664;23.354;2022-08-21T03:01:28;94477.19;;;23.23;100.00
38285;BME280;24088;42.664;23.354;2022-08-21T03:02:29;94475.19;;;23.18;100.00
38285;BME280;24088;42.664;23.354;2022-08-21T03:03:30;94475.69;;;23.16;100.00
38285;BME280;24088;42.664;23.354;2022-08-21T03:04:34;94479.31;;;23.06;100.00
38285;BME280;24088;42.664;23.354;2022-08-21T03:05:35;94484.41;;;23.02;100.00
38285;BME280;24088;42.664;23.354;2022-08-21T03:06:38;94485.66;;;23.06;100.00
38285;BME280;24088;42.664;23.354;2022-08-21T03:07:38;94484.13;;;23.11;100.00
38285;BME280;24088;42.664;23.354;2022-08-21T03:08:41;94483.59;;;23.18;100.00
38285;BME280;24088;42.664;23.354;2022-08-21T03:09:45;94484.88;;;23.17;100.00
38285;BME280;24088;42.664;23.354;2022-08-21T03:10:47;94483.09;;;23.14;100.00
38285;BME280;24088;42.664;23.354;2022-08-21T03:11:48;94481.06;;;23.14;100.00
38285;BME280;24088;42.664;23.354;2022-08-21T03:12:49;94476.47;;;23.11;100.00
38285;BME280;24088;42.664;23.354;2022-08-21T03:13:50;94475.47;;;23.09;100.00
38285;BME280;24088;42.664;23.354;2022-08-21T03:14:51;94474.75;;;22.97;100.00
38285;BME280;24088;42.664;23.354;2022-08-21T03:15:52;94478.56;;;22.94;100.00
38285;BME280;24088;42.664;23.354;2022-08-21T03:16:53;94469.94;;;22.92;100.00
38285;BME280;24088;42.664;23.354;2022-08-21T03:17:54;94469.91;;;22.97;100.00
38285;BME280;24088;42.664;23.354;2022-08-21T03:18:55;94466.34;;;22.97;100.00
38285;BME280;24088;42.664;23.354;2022-08-21T03:19:56;94466.16;;;22.67;100.00
38285;BME280;24088;42.664;23.354;2022-08-21T03:20:57;94467.41;;;22.77;100.00
38285;BME280;24088;42.664;23.354;2022-08-21T03:21:59;94464.09;;;22.90;100.00
38285;BME280;24088;42.664;23.354;2022-08-21T03:23:00;94474.50;;;23.01;100.00
38285;BME280;24088;42.664;23.354;2022-08-21T03:24:03;94481.84;;;23.09;100.00
38285;BME280;24088;42.664;23.354;2022-08-21T03:25:05;94474.69;;;23.08;100.00
38285;BME280;24088;42.664;23.354;2022-08-21T03:26:07;94486.16;;;23.10;100.00
38285;BME280;24088;42.664;23.354;2022-08-21T03:27:07;94489.69;;;23.16;100.00
38285;BME280;24088;42.664;23.354;2022-08-21T03:28:09;94482.09;;;23.06;100.00
38285;BME280;24088;42.664;23.354;2022-08-21T03:29:10;94480.28;;;23.14;100.00
38285;BME280;24088;42.664;23.354;2022-08-21T03:30:12;94477.22;;;23.12;100.00
38285;BME280;24088;42.664;23.354;2022-08-21T03:31:12;94475.44;;;23.14;100.00
38285;BME280;24088;42.664;23.354;2022-08-21T03:32:14;94474.63;;;23.25;100.00
38285;BME280;24088;42.664;23.354;2022-08-21T03:33:15;94467.47;;;23.35;100.00
38285;BME280;24088;42.664;23.354;2022-08-21T03:34:16;94469.03;;;23.31;100.00
38285;BME280;24088;42.664;23.354;2022-08-21T03:35:17;94471.56;;;23.34;100.00
38285;BME280;24088;42.664;23.354;2022-08-21T03:36:19;94477.13;;;23.40;100.00
38285;BME280;24088;42.664;23.354;2022-08-21T03:37:20;94471.81;;;23.31;100.00
38285;BME280;24088;42.664;23.354;2022-08-21T03:38:21;94472.81;;;23.39;100.00
38285;BME280;24088;42.664;23.354;2022-08-21T03:39:23;94472.84;;;23.28;100.00
38285;BME280;24088;42.664;23.354;2022-08-21T03:40:25;94468.03;;;23.22;100.00
38285;BME280;24088;42.664;23.354;2022-08-21T03:41:26;94465.19;;;23.28;100.00
38285;BME280;24088;42.664;23.354;2022-08-21T03:42:27;94455.81;;;23.20;100.00
38285;BME280;24088;42.664;23.354;2022-08-21T03:43:28;94467.09;;;23.09;100.00
38285;BME280;24088;42.664;23.354;2022-08-21T03:44:30;94461.97;;;23.07;100.00
38285;BME280;24088;42.664;23.354;2022-08-21T03:45:30;94461.16;;;23.23;100.00
38285;BME280;24088;42.664;23.354;2022-08-21T03:46:32;94466.75;;;23.23;100.00
38285;BME280;24088;42.664;23.354;2022-08-21T03:47:34;94477.97;;;23.23;100.00
38285;BME280;24088;42.664;23.354;2022-08-21T03:48:35;94475.47;;;23.03;100.00
38285;BME280;24088;42.664;23.354;2022-08-21T03:49:37;94470.72;;;22.75;100.00
38285;BME280;24088;42.664;23.354;2022-08-21T03:50:39;94476.91;;;22.40;100.00
38285;BME280;24088;42.664;23.354;2022-08-21T03:51:41;94481.47;;;22.49;100.00
38285;BME280;24088;42.664;23.354;2022-08-21T03:52:42;94471.56;;;22.25;100.00
38285;BME280;24088;42.664;23.354;2022-08-21T03:53:44;94484.78;;;22.19;100.00
38285;BME280;24088;42.664;23.354;2022-08-21T03:54:47;94468.50;;;22.46;100.00
38285;BME280;24088;42.664;23.354;2022-08-21T03:55:49;94481.19;;;22.53;100.00
38285;BME280;24088;42.664;23.354;2022-08-21T03:56:50;94482.69;;;22.70;100.00
38285;BME280;24088;42.664;23.354;2022-08-21T03:57:51;94488.00;;;22.80;100.00
38285;BME280;24088;42.664;23.354;2022-08-21T03:58:53;94491.81;;;22.82;100.00
38285;BME280;24088;42.664;23.354;2022-08-21T03:59:53;94497.91;;;22.86;100.00
38285;BME280;24088;42.664;23.354;2022-08-21T04:00:56;94488.28;;;22.59;100.00
38285;BME280;24088;42.664;23.354;2022-08-21T04:01:57;94490.09;;;22.34;100.00
38285;BME280;24088;42.664;23.354;2022-08-21T04:03:00;94489.84;;;22.38;100.00
38285;BME280;24088;42.664;23.354;2022-08-21T04:04:00;94489.06;;;22.54;100.00
38285;BME280;24088;42.664;23.354;2022-08-21T04:05:02;94488.53;;;22.67;100.00
38285;BME280;24088;42.664;23.354;2022-08-21T04:06:03;94492.84;;;22.68;100.00
38285;BME280;24088;42.664;23.354;2022-08-21T04:07:04;94495.16;;;22.75;100.00
38285;BME280;24088;42.664;23.354;2022-08-21T04:08:05;94498.91;;;22.89;100.00
38285;BME280;24088;42.664;23.354;2022-08-21T04:09:07;94490.81;;;22.68;100.00
38285;BME280;24088;42.664;23.354;2022-08-21T04:10:09;94493.13;;;22.59;100.00
38285;BME280;24088;42.664;23.354;2022-08-21T04:11:11;94498.47;;;22.62;100.00
38285;BME280;24088;42.664;23.354;2022-08-21T04:12:12;94494.63;;;22.77;100.00
38285;BME280;24088;42.664;23.354;2022-08-21T04:13:13;94506.38;;;22.36;100.00
38285;BME280;24088;42.664;23.354;2022-08-21T04:14:15;94503.31;;;22.62;100.00
38285;BME280;24088;42.664;23.354;2022-08-21T04:15:16;94500.00;;;22.46;100.00
38285;BME280;24088;42.664;23.354;2022-08-21T04:16:17;94490.81;;;22.68;100.00
38285;BME280;24088;42.664;23.354;2022-08-21T04:17:19;94495.41;;;22.71;100.00
38285;BME280;24088;42.664;23.354;2022-08-21T04:18:20;94492.09;;;22.73;100.00
38285;BME280;24088;42.664;23.354;2022-08-21T04:19:21;94484.22;;;22.71;100.00
38285;BME280;24088;42.664;23.354;2022-08-21T04:20:22;94489.81;;;22.71;100.00
38285;BME280;24088;42.664;23.354;2022-08-21T04:21:25;94474.28;;;22.76;100.00
38285;BME280;24088;42.664;23.354;2022-08-21T04:22:25;94488.53;;;22.72;100.00
38285;BME280;24088;42.664;23.354;2022-08-21T04:23:27;94481.88;;;22.81;100.00
38285;BME280;24088;42.664;23.354;2022-08-21T04:24:27;94487.75;;;22.78;100.00
38285;BME280;24088;42.664;23.354;2022-08-21T04:25:30;94493.38;;;22.55;100.00
38285;BME280;24088;42.664;23.354;2022-08-21T04:26:31;94493.66;;;22.46;100.00
38285;BME280;24088;42.664;23.354;2022-08-21T04:27:34;94490.34;;;22.47;100.00
38285;BME280;24088;42.664;23.354;2022-08-21T04:28:34;94489.34;;;22.06;100.00
38285;BME280;24088;42.664;23.354;2022-08-21T04:29:36;94500.22;;;21.92;100.00
38285;BME280;24088;42.664;23.354;2022-08-21T04:30:36;94494.59;;;21.59;100.00
38285;BME280;24088;42.664;23.354;2022-08-21T04:31:38;94489.03;;;21.64;100.00
38285;BME280;24088;42.664;23.354;2022-08-21T04:32:38;94492.34;;;21.85;100.00
38285;BME280;24088;42.664;23.354;2022-08-21T04:33:43;94490.44;;;21.32;100.00
38285;BME280;24088;42.664;23.354;2022-08-21T04:34:44;94496.47;;;21.19;100.00
38285;BME280;24088;42.664;23.354;2022-08-21T04:35:46;94493.44;;;21.28;100.00
38285;BME280;24088;42.664;23.354;2022-08-21T04:36:46;94489.91;;;21.27;100.00
38285;BME280;24088;42.664;23.354;2022-08-21T04:37:48;94499.38;;;21.41;100.00
38285;BME280;24088;42.664;23.354;2022-08-21T04:38:48;94490.75;;;21.45;100.00
38285;BME280;24088;42.664;23.354;2022-08-21T04:39:50;94490.06;;;21.78;100.00
38285;BME280;24088;42.664;23.354;2022-08-21T04:40:52;94485.78;;;22.22;100.00
38285;BME280;24088;42.664;23.354;2022-08-21T04:41:53;94486.50;;;21.78;100.00
38285;BME280;24088;42.664;23.354;2022-08-21T04:42:55;94485.75;;;21.94;100.00
38285;BME280;24088;42.664;23.354;2022-08-21T04:43:59;94482.19;;;21.99;100.00
38285;BME280;24088;42.664;23.354;2022-08-21T04:44:59;94487.56;;;21.97;100.00
38285;BME280;24088;42.664;23.354;2022-08-21T04:46:01;94487.53;;;21.91;100.00
38285;BME280;24088;42.664;23.354;2022-08-21T04:47:02;94493.59;;;21.73;100.00
38285;BME280;24088;42.664;23.354;2022-08-21T04:48:05;94494.13;;;21.77;100.00
38285;BME280;24088;42.664;23.354;2022-08-21T04:49:07;94490.06;;;21.84;100.00
38285;BME280;24088;42.664;23.354;2022-08-21T04:50:08;94488.28;;;21.86;100.00
38285;BME280;24088;42.664;23.354;2022-08-21T04:51:10;94491.31;;;21.88;100.00
38285;BME280;24088;42.664;23.354;2022-08-21T04:52:13;94488.84;;;22.41;100.00
38285;BME280;24088;42.664;23.354;2022-08-21T04:53:16;94486.81;;;22.41;100.00
38285;BME280;24088;42.664;23.354;2022-08-21T04:54:19;94486.78;;;22.58;100.00
38285;BME280;24088;42.664;23.354;2022-08-21T04:55:20;94488.03;;;22.63;100.00
38285;BME280;24088;42.664;23.354;2022-08-21T04:56:24;94489.31;;;22.62;100.00
38285;BME280;24088;42.664;23.354;2022-08-21T04:57:26;94484.44;;;22.73;100.00
38285;BME280;24088;42.664;23.354;2022-08-21T04:58:28;94486.47;;;22.73;100.00
38285;BME280;24088;42.664;23.354;2022-08-21T04:59:30;94483.19;;;22.74;100.00
38285;BME280;24088;42.664;23.354;2022-08-21T05:00:32;94475.78;;;22.77;100.00
38285;BME280;24088;42.664;23.354;2022-08-21T05:01:34;94479.91;;;22.70;100.00
38285;BME280;24088;42.664;23.354;2022-08-21T05:02:37;94481.16;;;22.69;100.00
38285;BME280;24088;42.664;23.354;2022-08-21T05:03:38;94474.50;;;22.84;100.00
38285;BME280;24088;42.664;23.354;2022-08-21T05:04:42;94481.09;;;23.03;100.00
38285;BME280;24088;42.664;23.354;2022-08-21T05:05:44;94476.03;;;22.90;100.00
38285;BME280;24088;42.664;23.354;2022-08-21T05:06:46;94477.56;;;22.97;100.00
38285;BME280;24088;42.664;23.354;2022-08-21T05:07:47;94479.34;;;22.94;100.00
38285;BME280;24088;42.664;23.354;2022-08-21T05:08:50;94482.63;;;22.98;100.00
38285;BME280;24088;42.664;23.354;2022-08-21T05:09:52;94482.63;;;22.98;100.00
38285;BME280;24088;42.664;23.354;2022-08-21T05:10:54;94481.09;;;23.03;100.00
38285;BME280;24088;42.664;23.354;2022-08-21T05:11:56;94482.63;;;23.04;100.00
38285;BME280;24088;42.664;23.354;2022-08-21T05:12:58;94485.41;;;23.10;100.00
38285;BME280;24088;42.664;23.354;2022-08-21T05:14:00;94485.97;;;22.91;100.00
38285;BME280;24088;42.664;23.354;2022-08-21T05:15:02;94488.94;;;23.16;100.00
38285;BME280;24088;42.664;23.354;2022-08-21T05:16:03;94490.44;;;23.22;100.00
38285;BME280;24088;42.664;23.354;2022-08-21T05:17:04;94492.41;;;23.33;100.00
38285;BME280;24088;42.664;23.354;2022-08-21T05:18:05;94490.75;;;23.02;100.00
38285;BME280;24088;42.664;23.354;2022-08-21T05:19:07;94485.44;;;22.98;100.00